sensor_id;sensor_type;location;lat;lon;timestamp;P1;durP1;ratioP1;P2;durP2;ratioP2
20669;SDS011;10494;50.868;4.180;2023-06-22T00:00:44;7.00;;;4.65;;
20669;SDS011;10494;50.868;4.180;2023-06-22T00:03:09;7.07;;;4.47;;
20669;SDS011;10494;50.868;4.180;2023-06-22T00:05:35;9.60;;;5.40;;
20669;SDS011;10494;50.868;4.180;2023-06-22T00:08:04;9.07;;;4.63;;
20669;SDS011;10494;50.868;4.180;2023-06-22T00:10:30;7.07;;;4.35;;
20669;SDS011;10494;50.868;4.180;2023-06-22T00:12:56;8.07;;;4.95;;
20669;SDS011;10494;50.868;4.180;2023-06-22T00:15:21;7.35;;;4.70;;
20669;SDS011;10494;50.868;4.180;2023-06-22T00:17:47;8.75;;;5.05;;
20669;SDS011;10494;50.868;4.180;2023-06-22T00:20:14;7.20;;;4.78;;
20669;SDS011;10494;50.868;4.180;2023-06-22T00:22:40;8.88;;;4.20;;
20669;SDS011;10494;50.868;4.180;2023-06-22T00:25:06;11.07;;;4.90;;
20669;SDS011;10494;50.868;4.180;2023-06-22T00:27:32;8.63;;;4.30;;
20669;SDS011;10494;50.868;4.180;2023-06-22T00:29:58;5.43;;;3.35;;
20669;SDS011;10494;50.868;4.180;2023-06-22T00:32:23;7.07;;;4.20;;
20669;SDS011;10494;50.868;4.180;2023-06-22T00:34:49;17.60;;;5.13;;
20669;SDS011;10494;50.868;4.180;2023-06-22T00:37:15;7.50;;;4.95;;
20669;SDS011;10494;50.868;4.180;2023-06-22T00:39:42;7.10;;;4.88;;
20669;SDS011;10494;50.868;4.180;2023-06-22T00:42:08;7.80;;;4.40;;
20669;SDS011;10494;50.868;4.180;2023-06-22T00:44:34;7.22;;;4.95;;
20669;SDS011;10494;50.868;4.180;2023-06-22T00:47:00;8.10;;;4.38;;
20669;SDS011;10494;50.868;4.180;2023-06-22T00:49:26;6.45;;;4.88;;
20669;SDS011;10494;50.868;4.180;2023-06-22T00:51:52;9.50;;;4.55;;
20669;SDS011;10494;50.868;4.180;2023-06-22T00:54:18;7.03;;;4.53;;
20669;SDS011;10494;50.868;4.180;2023-06-22T00:56:49;7.18;;;4.75;;
20669;SDS011;10494;50.868;4.180;2023-06-22T00:59:20;7.10;;;5.03;;
20669;SDS011;10494;50.868;4.180;2023-06-22T01:01:46;7.72;;;5.20;;
20669;SDS011;10494;50.868;4.180;2023-06-22T01:04:11;9.18;;;4.50;;
20669;SDS011;10494;50.868;4.180;2023-06-22T01:06:42;8.55;;;5.43;;
20669;SDS011;10494;50.868;4.180;2023-06-22T01:09:22;6.43;;;4.72;;
20669;SDS011;10494;50.868;4.180;2023-06-22T01:11:55;6.85;;;5.03;;
20669;SDS011;10494;50.868;4.180;2023-06-22T01:16:53;11.20;;;5.25;;
20669;SDS011;10494;50.868;4.180;2023-06-22T01:19:28;8.13;;;4.70;;
20669;SDS011;10494;50.868;4.180;2023-06-22T01:22:06;7.68;;;4.90;;
20669;SDS011;10494;50.868;4.180;2023-06-22T01:24:41;9.18;;;5.68;;
20669;SDS011;10494;50.868;4.180;2023-06-22T01:30:06;8.40;;;5.85;;
20669;SDS011;10494;50.868;4.180;2023-06-22T01:32:36;6.85;;;4.75;;
20669;SDS011;10494;50.868;4.180;2023-06-22T01:35:04;8.75;;;5.47;;
20669;SDS011;10494;50.868;4.180;2023-06-22T01:37:32;7.97;;;4.82;;
20669;SDS011;10494;50.868;4.180;2023-06-22T01:40:00;10.55;;;5.60;;
20669;SDS011;10494;50.868;4.180;2023-06-22T01:42:28;6.88;;;4.90;;
20669;SDS011;10494;50.868;4.180;2023-06-22T01:44:53;8.90;;;5.22;;
20669;SDS011;10494;50.868;4.180;2023-06-22T01:47:20;7.50;;;4.78;;
20669;SDS011;10494;50.868;4.180;2023-06-22T01:49:47;9.88;;;4.85;;
20669;SDS011;10494;50.868;4.180;2023-06-22T01:52:14;8.00;;;4.70;;
20669;SDS011;10494;50.868;4.180;2023-06-22T01:54:41;10.88;;;5.05;;
20669;SDS011;10494;50.868;4.180;2023-06-22T01:57:07;10.27;;;4.95;;
20669;SDS011;10494;50.868;4.180;2023-06-22T01:59:38;7.68;;;4.63;;
20669;SDS011;10494;50.868;4.180;2023-06-22T02:02:11;8.48;;;5.40;;
20669;SDS011;10494;50.868;4.180;2023-06-22T02:07:12;6.75;;;4.28;;
20669;SDS011;10494;50.868;4.180;2023-06-22T02:09:42;7.45;;;4.68;;
20669;SDS011;10494;50.868;4.180;2023-06-22T02:12:11;8.25;;;4.60;;
20669;SDS011;10494;50.868;4.180;2023-06-22T02:14:38;8.70;;;5.30;;
20669;SDS011;10494;50.868;4.180;2023-06-22T02:17:04;12.23;;;5.75;;
20669;SDS011;10494;50.868;4.180;2023-06-22T02:19:32;6.90;;;4.43;;
20669;SDS011;10494;50.868;4.180;2023-06-22T02:22:01;7.80;;;4.38;;
20669;SDS011;10494;50.868;4.180;2023-06-22T02:24:27;9.45;;;4.63;;
20669;SDS011;10494;50.868;4.180;2023-06-22T02:26:55;5.68;;;4.13;;
20669;SDS011;10494;50.868;4.180;2023-06-22T02:29:26;6.90;;;4.88;;
20669;SDS011;10494;50.868;4.180;2023-06-22T02:31:52;8.85;;;4.95;;
20669;SDS011;10494;50.868;4.180;2023-06-22T02:34:18;9.68;;;5.45;;
20669;SDS011;10494;50.868;4.180;2023-06-22T02:36:47;8.57;;;5.15;;
20669;SDS011;10494;50.868;4.180;2023-06-22T02:39:18;7.05;;;4.93;;
20669;SDS011;10494;50.868;4.180;2023-06-22T02:41:48;8.07;;;4.80;;
20669;SDS011;10494;50.868;4.180;2023-06-22T02:44:18;12.05;;;4.75;;
20669;SDS011;10494;50.868;4.180;2023-06-22T02:46:44;9.60;;;5.45;;
20669;SDS011;10494;50.868;4.180;2023-06-22T02:49:10;9.43;;;4.70;;
20669;SDS011;10494;50.868;4.180;2023-06-22T02:51:38;9.52;;;5.65;;
20669;SDS011;10494;50.868;4.180;2023-06-22T02:54:05;10.07;;;5.35;;
20669;SDS011;10494;50.868;4.180;2023-06-22T02:56:31;9.00;;;4.68;;
20669;SDS011;10494;50.868;4.180;2023-06-22T02:58:58;9.13;;;5.85;;
20669;SDS011;10494;50.868;4.180;2023-06-22T03:01:26;10.82;;;5.40;;
20669;SDS011;10494;50.868;4.180;2023-06-22T03:03:53;8.95;;;4.70;;
20669;SDS011;10494;50.868;4.180;2023-06-22T03:06:19;8.88;;;5.68;;
20669;SDS011;10494;50.868;4.180;2023-06-22T03:08:48;7.75;;;5.13;;
20669;SDS011;10494;50.868;4.180;2023-06-22T03:11:15;8.93;;;5.78;;
20669;SDS011;10494;50.868;4.180;2023-06-22T03:13:40;9.50;;;5.82;;
20669;SDS011;10494;50.868;4.180;2023-06-22T03:16:06;10.30;;;5.80;;
20669;SDS011;10494;50.868;4.180;2023-06-22T03:18:31;9.52;;;5.65;;
20669;SDS011;10494;50.868;4.180;2023-06-22T03:20:58;9.70;;;5.53;;
20669;SDS011;10494;50.868;4.180;2023-06-22T03:23:25;9.05;;;5.22;;
20669;SDS011;10494;50.868;4.180;2023-06-22T03:25:50;7.80;;;4.80;;
20669;SDS011;10494;50.868;4.180;2023-06-22T03:28:16;8.00;;;4.70;;
20669;SDS011;10494;50.868;4.180;2023-06-22T03:30:42;7.88;;;5.28;;
20669;SDS011;10494;50.868;4.180;2023-06-22T03:33:08;10.98;;;4.63;;
20669;SDS011;10494;50.868;4.180;2023-06-22T03:35:33;9.27;;;4.80;;
20669;SDS011;10494;50.868;4.180;2023-06-22T03:37:59;10.63;;;6.00;;
20669;SDS011;10494;50.868;4.180;2023-06-22T03:40:24;10.65;;;5.43;;
20669;SDS011;10494;50.868;4.180;2023-06-22T03:42:50;7.80;;;5.63;;
20669;SDS011;10494;50.868;4.180;2023-06-22T03:45:16;7.97;;;5.40;;
20669;SDS011;10494;50.868;4.180;2023-06-22T03:47:41;8.15;;;4.95;;
20669;SDS011;10494;50.868;4.180;2023-06-22T03:50:07;7.38;;;5.57;;
20669;SDS011;10494;50.868;4.180;2023-06-22T03:52:33;7.15;;;5.18;;
20669;SDS011;10494;50.868;4.180;2023-06-22T03:54:58;6.68;;;5.07;;
20669;SDS011;10494;50.868;4.180;2023-06-22T03:57:24;13.07;;;5.80;;
20669;SDS011;10494;50.868;4.180;2023-06-22T03:59:49;10.77;;;5.25;;
20669;SDS011;10494;50.868;4.180;2023-06-22T04:02:15;12.23;;;5.63;;
20669;SDS011;10494;50.868;4.180;2023-06-22T04:04:41;10.68;;;5.38;;
20669;SDS011;10494;50.868;4.180;2023-06-22T04:07:06;11.40;;;5.72;;
20669;SDS011;10494;50.868;4.180;2023-06-22T04:09:32;7.72;;;5.07;;
20669;SDS011;10494;50.868;4.180;2023-06-22T04:11:58;8.50;;;5.43;;
20669;SDS011;10494;50.868;4.180;2023-06-22T04:14:24;8.60;;;5.32;;
20669;SDS011;10494;50.868;4.180;2023-06-22T04:16:49;11.10;;;5.60;;
20669;SDS011;10494;50.868;4.180;2023-06-22T04:19:15;9.95;;;5.50;;
20669;SDS011;10494;50.868;4.180;2023-06-22T04:21:43;10.90;;;6.45;;
20669;SDS011;10494;50.868;4.180;2023-06-22T04:24:09;9.38;;;5.70;;
20669;SDS011;10494;50.868;4.180;2023-06-22T04:26:35;11.50;;;6.10;;
20669;SDS011;10494;50.868;4.180;2023-06-22T04:29:02;9.60;;;5.93;;
20669;SDS011;10494;50.868;4.180;2023-06-22T04:31:31;8.55;;;5.70;;
20669;SDS011;10494;50.868;4.180;2023-06-22T04:34:01;11.68;;;5.72;;
20669;SDS011;10494;50.868;4.180;2023-06-22T04:36:35;9.75;;;6.43;;
20669;SDS011;10494;50.868;4.180;2023-06-22T04:39:11;14.20;;;6.85;;
20669;SDS011;10494;50.868;4.180;2023-06-22T04:41:40;10.27;;;6.07;;
20669;SDS011;10494;50.868;4.180;2023-06-22T04:46:35;13.13;;;7.30;;
20669;SDS011;10494;50.868;4.180;2023-06-22T04:49:04;16.38;;;7.10;;
20669;SDS011;10494;50.868;4.180;2023-06-22T04:51:31;12.18;;;7.43;;
20669;SDS011;10494;50.868;4.180;2023-06-22T04:53:57;14.00;;;8.13;;
20669;SDS011;10494;50.868;4.180;2023-06-22T04:56:26;13.82;;;8.07;;
20669;SDS011;10494;50.868;4.180;2023-06-22T04:58:54;13.07;;;8.43;;
20669;SDS011;10494;50.868;4.180;2023-06-22T05:01:22;12.98;;;8.23;;
20669;SDS011;10494;50.868;4.180;2023-06-22T05:03:48;12.35;;;7.60;;
20669;SDS011;10494;50.868;4.180;2023-06-22T05:06:14;13.18;;;7.82;;
20669;SDS011;10494;50.868;4.180;2023-06-22T05:08:40;12.13;;;7.65;;
20669;SDS011;10494;50.868;4.180;2023-06-22T05:11:06;12.10;;;8.05;;
20669;SDS011;10494;50.868;4.180;2023-06-22T05:13:32;13.40;;;9.48;;
20669;SDS011;10494;50.868;4.180;2023-06-22T05:15:57;17.02;;;8.48;;
20669;SDS011;10494;50.868;4.180;2023-06-22T05:18:30;15.07;;;9.48;;
20669;SDS011;10494;50.868;4.180;2023-06-22T05:20:56;14.18;;;9.15;;
20669;SDS011;10494;50.868;4.180;2023-06-22T05:23:23;15.85;;;9.20;;
20669;SDS011;10494;50.868;4.180;2023-06-22T05:25:48;15.80;;;8.82;;
20669;SDS011;10494;50.868;4.180;2023-06-22T05:28:14;17.95;;;9.43;;
20669;SDS011;10494;50.868;4.180;2023-06-22T05:30:39;16.15;;;9.32;;
20669;SDS011;10494;50.868;4.180;2023-06-22T05:33:06;16.85;;;9.45;;
20669;SDS011;10494;50.868;4.180;2023-06-22T05:35:31;17.05;;;9.60;;
20669;SDS011;10494;50.868;4.180;2023-06-22T05:37:57;18.58;;;9.23;;
20669;SDS011;10494;50.868;4.180;2023-06-22T05:40:23;20.45;;;10.45;;
20669;SDS011;10494;50.868;4.180;2023-06-22T05:42:48;18.13;;;9.90;;
20669;SDS011;10494;50.868;4.180;2023-06-22T05:45:14;16.33;;;11.02;;
20669;SDS011;10494;50.868;4.180;2023-06-22T05:47:40;21.48;;;11.43;;
20669;SDS011;10494;50.868;4.180;2023-06-22T05:50:05;20.48;;;11.13;;
20669;SDS011;10494;50.868;4.180;2023-06-22T05:52:33;16.40;;;11.20;;
20669;SDS011;10494;50.868;4.180;2023-06-22T05:54:59;17.52;;;11.15;;
20669;SDS011;10494;50.868;4.180;2023-06-22T05:57:24;16.90;;;10.55;;
20669;SDS011;10494;50.868;4.180;2023-06-22T05:59:50;18.23;;;10.90;;
20669;SDS011;10494;50.868;4.180;2023-06-22T06:02:16;19.25;;;10.98;;
20669;SDS011;10494;50.868;4.180;2023-06-22T06:04:42;22.60;;;11.75;;
20669;SDS011;10494;50.868;4.180;2023-06-22T06:07:07;21.02;;;12.40;;
20669;SDS011;10494;50.868;4.180;2023-06-22T06:09:33;16.10;;;11.15;;
20669;SDS011;10494;50.868;4.180;2023-06-22T06:11:59;18.10;;;12.07;;
20669;SDS011;10494;50.868;4.180;2023-06-22T06:14:24;19.63;;;11.75;;
20669;SDS011;10494;50.868;4.180;2023-06-22T06:16:50;19.10;;;12.80;;
20669;SDS011;10494;50.868;4.180;2023-06-22T06:19:15;18.60;;;12.38;;
20669;SDS011;10494;50.868;4.180;2023-06-22T06:21:41;22.67;;;11.80;;
20669;SDS011;10494;50.868;4.180;2023-06-22T06:24:06;21.63;;;12.48;;
20669;SDS011;10494;50.868;4.180;2023-06-22T06:26:32;24.42;;;12.40;;
20669;SDS011;10494;50.868;4.180;2023-06-22T06:29:00;21.65;;;11.55;;
20669;SDS011;10494;50.868;4.180;2023-06-22T06:31:27;19.67;;;12.95;;
20669;SDS011;10494;50.868;4.180;2023-06-22T06:33:54;28.63;;;13.48;;
20669;SDS011;10494;50.868;4.180;2023-06-22T06:36:20;25.77;;;13.05;;
20669;SDS011;10494;50.868;4.180;2023-06-22T06:38:46;18.60;;;13.38;;
20669;SDS011;10494;50.868;4.180;2023-06-22T06:41:15;29.48;;;14.88;;
20669;SDS011;10494;50.868;4.180;2023-06-22T06:43:41;21.27;;;13.45;;
20669;SDS011;10494;50.868;4.180;2023-06-22T06:46:08;21.25;;;13.40;;
20669;SDS011;10494;50.868;4.180;2023-06-22T06:48:34;20.90;;;12.38;;
20669;SDS011;10494;50.868;4.180;2023-06-22T06:51:00;19.15;;;13.60;;
20669;SDS011;10494;50.868;4.180;2023-06-22T06:53:25;20.67;;;13.70;;
20669;SDS011;10494;50.868;4.180;2023-06-22T06:55:51;22.00;;;13.70;;
20669;SDS011;10494;50.868;4.180;2023-06-22T06:58:17;20.63;;;13.82;;
20669;SDS011;10494;50.868;4.180;2023-06-22T07:00:43;19.00;;;13.63;;
20669;SDS011;10494;50.868;4.180;2023-06-22T07:03:08;18.55;;;13.50;;
20669;SDS011;10494;50.868;4.180;2023-06-22T07:05:34;20.10;;;13.90;;
20669;SDS011;10494;50.868;4.180;2023-06-22T07:08:00;20.40;;;13.75;;
20669;SDS011;10494;50.868;4.180;2023-06-22T07:10:26;20.23;;;13.80;;
20669;SDS011;10494;50.868;4.180;2023-06-22T07:12:52;23.98;;;13.73;;
20669;SDS011;10494;50.868;4.180;2023-06-22T07:15:18;22.27;;;15.25;;
20669;SDS011;10494;50.868;4.180;2023-06-22T07:17:43;20.70;;;15.02;;
20669;SDS011;10494;50.868;4.180;2023-06-22T07:20:09;26.17;;;14.68;;
20669;SDS011;10494;50.868;4.180;2023-06-22T07:22:40;21.73;;;15.05;;
20669;SDS011;10494;50.868;4.180;2023-06-22T07:25:08;23.05;;;14.65;;
20669;SDS011;10494;50.868;4.180;2023-06-22T07:28:16;22.67;;;14.07;;
20669;SDS011;10494;50.868;4.180;2023-06-22T07:30:24;19.95;;;14.20;;
20669;SDS011;10494;50.868;4.180;2023-06-22T07:32:51;21.10;;;15.05;;
20669;SDS011;10494;50.868;4.180;2023-06-22T07:35:16;24.90;;;16.15;;
20669;SDS011;10494;50.868;4.180;2023-06-22T07:37:42;24.30;;;15.35;;
20669;SDS011;10494;50.868;4.180;2023-06-22T07:40:08;20.20;;;15.30;;
20669;SDS011;10494;50.868;4.180;2023-06-22T07:42:35;21.25;;;15.20;;
20669;SDS011;10494;50.868;4.180;2023-06-22T07:45:01;22.92;;;15.57;;
20669;SDS011;10494;50.868;4.180;2023-06-22T07:47:28;26.17;;;16.00;;
20669;SDS011;10494;50.868;4.180;2023-06-22T07:49:54;19.58;;;14.40;;
20669;SDS011;10494;50.868;4.180;2023-06-22T07:52:22;20.70;;;15.32;;
20669;SDS011;10494;50.868;4.180;2023-06-22T07:54:48;22.75;;;15.52;;
20669;SDS011;10494;50.868;4.180;2023-06-22T07:57:14;26.48;;;17.10;;
20669;SDS011;10494;50.868;4.180;2023-06-22T07:59:40;21.20;;;16.17;;
20669;SDS011;10494;50.868;4.180;2023-06-22T08:02:05;20.48;;;16.38;;
20669;SDS011;10494;50.868;4.180;2023-06-22T08:04:31;27.95;;;16.48;;
20669;SDS011;10494;50.868;4.180;2023-06-22T08:06:59;21.38;;;16.30;;
20669;SDS011;10494;50.868;4.180;2023-06-22T08:09:24;20.60;;;15.98;;
20669;SDS011;10494;50.868;4.180;2023-06-22T08:11:50;23.17;;;16.45;;
20669;SDS011;10494;50.868;4.180;2023-06-22T08:14:15;22.42;;;15.88;;
20669;SDS011;10494;50.868;4.180;2023-06-22T08:16:41;24.92;;;15.85;;
20669;SDS011;10494;50.868;4.180;2023-06-22T08:19:07;25.40;;;16.35;;
20669;SDS011;10494;50.868;4.180;2023-06-22T08:21:33;22.27;;;16.83;;
20669;SDS011;10494;50.868;4.180;2023-06-22T08:23:58;22.95;;;16.50;;
20669;SDS011;10494;50.868;4.180;2023-06-22T08:26:24;23.92;;;17.00;;
20669;SDS011;10494;50.868;4.180;2023-06-22T08:28:50;23.60;;;15.65;;
20669;SDS011;10494;50.868;4.180;2023-06-22T08:31:15;27.25;;;16.10;;
20669;SDS011;10494;50.868;4.180;2023-06-22T08:33:41;23.20;;;15.52;;
20669;SDS011;10494;50.868;4.180;2023-06-22T08:36:08;18.92;;;14.35;;
20669;SDS011;10494;50.868;4.180;2023-06-22T08:38:35;18.90;;;13.80;;
20669;SDS011;10494;50.868;4.180;2023-06-22T08:41:01;17.42;;;14.23;;
20669;SDS011;10494;50.868;4.180;2023-06-22T08:43:27;22.60;;;14.27;;
20669;SDS011;10494;50.868;4.180;2023-06-22T08:45:53;18.77;;;14.23;;
20669;SDS011;10494;50.868;4.180;2023-06-22T08:48:19;19.55;;;13.90;;
20669;SDS011;10494;50.868;4.180;2023-06-22T08:50:44;21.60;;;14.30;;
20669;SDS011;10494;50.868;4.180;2023-06-22T08:53:10;18.33;;;14.60;;
20669;SDS011;10494;50.868;4.180;2023-06-22T08:55:35;23.20;;;15.23;;
20669;SDS011;10494;50.868;4.180;2023-06-22T08:58:01;16.55;;;13.43;;
20669;SDS011;10494;50.868;4.180;2023-06-22T09:00:27;16.90;;;13.45;;
20669;SDS011;10494;50.868;4.180;2023-06-22T09:02:54;20.75;;;14.82;;
20669;SDS011;10494;50.868;4.180;2023-06-22T09:05:23;18.75;;;14.60;;
20669;SDS011;10494;50.868;4.180;2023-06-22T09:07:50;21.05;;;15.77;;
20669;SDS011;10494;50.868;4.180;2023-06-22T09:10:16;20.23;;;15.13;;
20669;SDS011;10494;50.868;4.180;2023-06-22T09:12:43;20.58;;;15.15;;
20669;SDS011;10494;50.868;4.180;2023-06-22T09:15:09;22.27;;;16.00;;
20669;SDS011;10494;50.868;4.180;2023-06-22T09:17:35;21.80;;;15.40;;
20669;SDS011;10494;50.868;4.180;2023-06-22T09:20:01;23.08;;;16.15;;
20669;SDS011;10494;50.868;4.180;2023-06-22T09:22:30;24.50;;;16.77;;
20669;SDS011;10494;50.868;4.180;2023-06-22T09:24:56;19.60;;;16.30;;
20669;SDS011;10494;50.868;4.180;2023-06-22T09:27:22;24.75;;;17.27;;
20669;SDS011;10494;50.868;4.180;2023-06-22T09:29:48;28.58;;;16.65;;
20669;SDS011;10494;50.868;4.180;2023-06-22T09:32:14;32.42;;;20.75;;
20669;SDS011;10494;50.868;4.180;2023-06-22T09:34:40;25.80;;;18.13;;
20669;SDS011;10494;50.868;4.180;2023-06-22T09:37:05;29.35;;;19.70;;
20669;SDS011;10494;50.868;4.180;2023-06-22T09:39:31;27.92;;;21.23;;
20669;SDS011;10494;50.868;4.180;2023-06-22T09:42:00;28.35;;;21.33;;
20669;SDS011;10494;50.868;4.180;2023-06-22T09:44:25;27.15;;;20.85;;
20669;SDS011;10494;50.868;4.180;2023-06-22T09:46:51;28.75;;;21.10;;
20669;SDS011;10494;50.868;4.180;2023-06-22T09:49:18;31.02;;;23.27;;
20669;SDS011;10494;50.868;4.180;2023-06-22T09:51:43;32.47;;;23.75;;
20669;SDS011;10494;50.868;4.180;2023-06-22T09:54:09;33.22;;;24.77;;
20669;SDS011;10494;50.868;4.180;2023-06-22T09:56:34;36.10;;;25.65;;
20669;SDS011;10494;50.868;4.180;2023-06-22T09:59:00;40.88;;;28.58;;
20669;SDS011;10494;50.868;4.180;2023-06-22T10:01:25;41.40;;;29.38;;
20669;SDS011;10494;50.868;4.180;2023-06-22T10:03:55;41.45;;;26.73;;
20669;SDS011;10494;50.868;4.180;2023-06-22T10:06:21;36.90;;;26.98;;
20669;SDS011;10494;50.868;4.180;2023-06-22T10:08:47;41.38;;;29.65;;
20669;SDS011;10494;50.868;4.180;2023-06-22T10:11:15;40.50;;;29.30;;
20669;SDS011;10494;50.868;4.180;2023-06-22T10:13:41;42.55;;;29.73;;
20669;SDS011;10494;50.868;4.180;2023-06-22T10:16:07;46.55;;;30.15;;
20669;SDS011;10494;50.868;4.180;2023-06-22T10:18:32;49.88;;;32.63;;
20669;SDS011;10494;50.868;4.180;2023-06-22T10:20:58;44.33;;;30.35;;
20669;SDS011;10494;50.868;4.180;2023-06-22T10:23:23;36.50;;;24.83;;
20669;SDS011;10494;50.868;4.180;2023-06-22T10:25:49;26.75;;;20.83;;
20669;SDS011;10494;50.868;4.180;2023-06-22T10:28:15;26.80;;;20.00;;
20669;SDS011;10494;50.868;4.180;2023-06-22T10:30:41;25.75;;;20.20;;
20669;SDS011;10494;50.868;4.180;2023-06-22T10:33:07;33.15;;;21.27;;
20669;SDS011;10494;50.868;4.180;2023-06-22T10:35:34;31.08;;;21.80;;
20669;SDS011;10494;50.868;4.180;2023-06-22T10:38:00;35.28;;;23.17;;
20669;SDS011;10494;50.868;4.180;2023-06-22T10:40:25;32.53;;;23.35;;
20669;SDS011;10494;50.868;4.180;2023-06-22T10:42:51;31.95;;;21.90;;
20669;SDS011;10494;50.868;4.180;2023-06-22T10:45:17;31.02;;;22.23;;
20669;SDS011;10494;50.868;4.180;2023-06-22T10:47:42;30.67;;;21.33;;
20669;SDS011;10494;50.868;4.180;2023-06-22T10:50:08;27.10;;;19.02;;
20669;SDS011;10494;50.868;4.180;2023-06-22T10:52:34;28.25;;;20.08;;
20669;SDS011;10494;50.868;4.180;2023-06-22T10:54:59;26.67;;;19.30;;
20669;SDS011;10494;50.868;4.180;2023-06-22T10:57:25;35.00;;;20.25;;
20669;SDS011;10494;50.868;4.180;2023-06-22T10:59:51;31.42;;;21.70;;
20669;SDS011;10494;50.868;4.180;2023-06-22T11:02:17;27.98;;;20.75;;
20669;SDS011;10494;50.868;4.180;2023-06-22T11:04:42;31.58;;;22.08;;
20669;SDS011;10494;50.868;4.180;2023-06-22T11:07:08;30.20;;;24.17;;
20669;SDS011;10494;50.868;4.180;2023-06-22T11:09:34;34.75;;;24.17;;
20669;SDS011;10494;50.868;4.180;2023-06-22T11:12:00;33.72;;;23.73;;
20669;SDS011;10494;50.868;4.180;2023-06-22T11:14:26;39.45;;;25.40;;
20669;SDS011;10494;50.868;4.180;2023-06-22T11:16:52;37.85;;;26.15;;
20669;SDS011;10494;50.868;4.180;2023-06-22T11:19:18;35.53;;;27.15;;
20669;SDS011;10494;50.868;4.180;2023-06-22T11:21:44;42.90;;;28.77;;
20669;SDS011;10494;50.868;4.180;2023-06-22T11:24:09;41.35;;;28.52;;
20669;SDS011;10494;50.868;4.180;2023-06-22T11:26:35;41.15;;;28.83;;
20669;SDS011;10494;50.868;4.180;2023-06-22T11:29:02;39.65;;;28.25;;
20669;SDS011;10494;50.868;4.180;2023-06-22T11:31:30;37.90;;;28.60;;
20669;SDS011;10494;50.868;4.180;2023-06-22T11:33:57;45.70;;;29.17;;
20669;SDS011;10494;50.868;4.180;2023-06-22T11:36:23;44.58;;;30.42;;
20669;SDS011;10494;50.868;4.180;2023-06-22T11:38:48;46.05;;;30.05;;
20669;SDS011;10494;50.868;4.180;2023-06-22T11:41:14;45.70;;;32.35;;
20669;SDS011;10494;50.868;4.180;2023-06-22T11:43:40;43.60;;;30.17;;
20669;SDS011;10494;50.868;4.180;2023-06-22T11:46:06;45.85;;;31.20;;
20669;SDS011;10494;50.868;4.180;2023-06-22T11:48:32;47.30;;;32.38;;
20669;SDS011;10494;50.868;4.180;2023-06-22T11:50:58;52.70;;;35.80;;
20669;SDS011;10494;50.868;4.180;2023-06-22T11:53:24;56.70;;;35.30;;
20669;SDS011;10494;50.868;4.180;2023-06-22T11:55:51;48.47;;;34.20;;
20669;SDS011;10494;50.868;4.180;2023-06-22T11:58:19;43.47;;;32.28;;
20669;SDS011;10494;50.868;4.180;2023-06-22T12:00:45;44.53;;;33.67;;
20669;SDS011;10494;50.868;4.180;2023-06-22T12:03:11;45.35;;;31.85;;
20669;SDS011;10494;50.868;4.180;2023-06-22T12:05:37;47.75;;;32.55;;
20669;SDS011;10494;50.868;4.180;2023-06-22T12:08:03;41.15;;;31.02;;
20669;SDS011;10494;50.868;4.180;2023-06-22T12:10:29;42.70;;;31.60;;
20669;SDS011;10494;50.868;4.180;2023-06-22T12:12:55;41.40;;;30.83;;
20669;SDS011;10494;50.868;4.180;2023-06-22T12:15:22;42.70;;;31.45;;
20669;SDS011;10494;50.868;4.180;2023-06-22T12:17:49;55.22;;;33.80;;
20669;SDS011;10494;50.868;4.180;2023-06-22T12:20:14;44.63;;;32.60;;
20669;SDS011;10494;50.868;4.180;2023-06-22T12:22:41;45.55;;;32.60;;
20669;SDS011;10494;50.868;4.180;2023-06-22T12:25:07;43.15;;;32.60;;
20669;SDS011;10494;50.868;4.180;2023-06-22T12:27:34;47.83;;;31.77;;
20669;SDS011;10494;50.868;4.180;2023-06-22T12:30:00;46.22;;;33.70;;
20669;SDS011;10494;50.868;4.180;2023-06-22T12:32:25;46.45;;;33.85;;
20669;SDS011;10494;50.868;4.180;2023-06-22T12:34:51;49.47;;;32.55;;
20669;SDS011;10494;50.868;4.180;2023-06-22T12:37:17;49.97;;;35.83;;
20669;SDS011;10494;50.868;4.180;2023-06-22T12:39:42;51.40;;;34.38;;
20669;SDS011;10494;50.868;4.180;2023-06-22T12:42:08;51.55;;;32.90;;
20669;SDS011;10494;50.868;4.180;2023-06-22T12:44:37;46.33;;;33.13;;
20669;SDS011;10494;50.868;4.180;2023-06-22T12:47:03;49.03;;;33.42;;
20669;SDS011;10494;50.868;4.180;2023-06-22T12:49:29;48.13;;;33.85;;
20669;SDS011;10494;50.868;4.180;2023-06-22T12:51:54;49.63;;;33.40;;
20669;SDS011;10494;50.868;4.180;2023-06-22T12:54:20;49.95;;;33.38;;
20669;SDS011;10494;50.868;4.180;2023-06-22T12:56:45;53.97;;;35.03;;
20669;SDS011;10494;50.868;4.180;2023-06-22T12:59:12;50.60;;;34.22;;
20669;SDS011;10494;50.868;4.180;2023-06-22T13:01:37;51.10;;;34.53;;
20669;SDS011;10494;50.868;4.180;2023-06-22T13:04:03;47.00;;;33.22;;
20669;SDS011;10494;50.868;4.180;2023-06-22T13:06:30;47.85;;;32.80;;
20669;SDS011;10494;50.868;4.180;2023-06-22T13:08:55;50.28;;;33.00;;
20669;SDS011;10494;50.868;4.180;2023-06-22T13:11:21;54.65;;;35.17;;
20669;SDS011;10494;50.868;4.180;2023-06-22T13:13:47;47.70;;;32.90;;
20669;SDS011;10494;50.868;4.180;2023-06-22T13:16:12;52.53;;;35.85;;
20669;SDS011;10494;50.868;4.180;2023-06-22T13:18:38;53.47;;;34.70;;
20669;SDS011;10494;50.868;4.180;2023-06-22T13:21:04;49.72;;;34.70;;
20669;SDS011;10494;50.868;4.180;2023-06-22T13:23:30;58.65;;;36.22;;
20669;SDS011;10494;50.868;4.180;2023-06-22T13:25:57;54.55;;;34.97;;
20669;SDS011;10494;50.868;4.180;2023-06-22T13:28:23;51.10;;;34.65;;
20669;SDS011;10494;50.868;4.180;2023-06-22T13:30:49;48.05;;;33.78;;
20669;SDS011;10494;50.868;4.180;2023-06-22T13:33:14;54.72;;;35.42;;
20669;SDS011;10494;50.868;4.180;2023-06-22T13:35:40;61.08;;;38.20;;
20669;SDS011;10494;50.868;4.180;2023-06-22T13:38:09;58.40;;;39.30;;
20669;SDS011;10494;50.868;4.180;2023-06-22T13:40:35;58.05;;;38.78;;
20669;SDS011;10494;50.868;4.180;2023-06-22T13:43:01;57.10;;;38.95;;
20669;SDS011;10494;50.868;4.180;2023-06-22T13:45:27;57.83;;;38.03;;
20669;SDS011;10494;50.868;4.180;2023-06-22T13:47:53;59.42;;;38.03;;
20669;SDS011;10494;50.868;4.180;2023-06-22T13:50:18;54.03;;;36.42;;
20669;SDS011;10494;50.868;4.180;2023-06-22T13:52:44;50.63;;;36.38;;
20669;SDS011;10494;50.868;4.180;2023-06-22T13:55:09;51.92;;;37.55;;
20669;SDS011;10494;50.868;4.180;2023-06-22T13:57:35;55.13;;;37.17;;
20669;SDS011;10494;50.868;4.180;2023-06-22T14:00:02;53.92;;;37.38;;
20669;SDS011;10494;50.868;4.180;2023-06-22T14:02:30;54.10;;;36.92;;
20669;SDS011;10494;50.868;4.180;2023-06-22T14:04:56;53.67;;;37.72;;
20669;SDS011;10494;50.868;4.180;2023-06-22T14:07:21;62.03;;;43.25;;
20669;SDS011;10494;50.868;4.180;2023-06-22T14:09:49;55.83;;;38.60;;
20669;SDS011;10494;50.868;4.180;2023-06-22T14:12:15;59.83;;;41.28;;
20669;SDS011;10494;50.868;4.180;2023-06-22T14:14:42;59.70;;;39.70;;
20669;SDS011;10494;50.868;4.180;2023-06-22T14:17:08;60.75;;;41.42;;
20669;SDS011;10494;50.868;4.180;2023-06-22T14:19:35;60.80;;;41.45;;
20669;SDS011;10494;50.868;4.180;2023-06-22T14:22:00;58.88;;;40.78;;
20669;SDS011;10494;50.868;4.180;2023-06-22T14:24:26;62.25;;;41.40;;
20669;SDS011;10494;50.868;4.180;2023-06-22T14:26:53;63.17;;;41.40;;
20669;SDS011;10494;50.868;4.180;2023-06-22T14:29:19;62.20;;;42.55;;
20669;SDS011;10494;50.868;4.180;2023-06-22T14:31:45;63.70;;;42.97;;
20669;SDS011;10494;50.868;4.180;2023-06-22T14:34:11;62.97;;;42.00;;